createdAt,value
2019-02-06T00:01:46.278Z,22.10
2019-02-06T00:04:16.398Z,26.33
2019-02-06T00:06:46.322Z,26.37
2019-02-06T00:09:18.337Z,29.00
2019-02-06T00:11:48.599Z,31.30
2019-02-06T00:14:19.734Z,28.13
2019-02-06T00:16:49.935Z,29.33
2019-02-06T00:19:20.816Z,31.40
2019-02-06T00:21:52.842Z,29.93
2019-02-06T00:24:23.074Z,27.40
2019-02-06T00:26:53.345Z,23.77
2019-02-06T00:29:23.114Z,26.67
2019-02-06T00:31:53.958Z,28.40
2019-02-06T00:34:26.565Z,25.40
2019-02-06T00:36:56.799Z,27.77
2019-02-06T00:39:27.547Z,21.97
2019-02-06T00:41:57.270Z,24.67
2019-02-06T00:44:27.911Z,25.33
2019-02-06T00:46:58.270Z,26.30
2019-02-06T00:49:29.051Z,25.37
2019-02-06T00:51:59.439Z,24.00
2019-02-06T00:54:32.206Z,24.90
2019-02-06T00:57:02.359Z,22.90
2019-02-06T00:59:33.126Z,29.50
2019-02-06T01:02:03.585Z,31.97
2019-02-06T01:04:34.092Z,23.60
2019-02-06T01:07:04.257Z,22.97
2019-02-06T01:09:34.507Z,27.70
2019-02-06T01:12:04.763Z,27.13
2019-02-06T01:14:36.994Z,22.00
2019-02-06T01:17:07.910Z,28.67
2019-02-06T01:19:41.185Z,20.67
2019-02-06T01:22:11.675Z,28.93
2019-02-06T01:24:44.091Z,25.27
2019-02-06T01:27:14.756Z,26.07
2019-02-06T01:29:45.486Z,25.90
2019-02-06T01:32:18.739Z,24.80
2019-02-06T01:34:48.482Z,24.67
2019-02-06T01:37:18.215Z,23.90
2019-02-06T01:39:48.809Z,26.10
2019-02-06T01:42:21.721Z,25.13
2019-02-06T01:44:52.204Z,24.23
2019-02-06T01:47:26.317Z,20.60
2019-02-06T01:49:56.249Z,19.60
2019-02-06T01:52:33.179Z,19.73
2019-02-06T01:55:07.529Z,22.03
2019-02-06T01:57:49.374Z,19.10
2019-02-06T02:00:21.313Z,24.17
2019-02-06T02:02:51.272Z,22.00
2019-02-06T02:05:24.343Z,26.50
2019-02-06T02:07:55.447Z,23.07
2019-02-06T02:10:30.375Z,23.63
2019-02-06T02:13:00.144Z,22.57
2019-02-06T02:15:32.969Z,23.17
2019-02-06T02:18:02.884Z,19.80
2019-02-06T02:20:32.677Z,25.10
2019-02-06T02:23:03.171Z,24.93
2019-02-06T04:46:39.850Z,21.07
2019-02-06T04:49:12.382Z,24.10
2019-02-06T04:51:42.842Z,25.12
2019-02-06T04:54:12.631Z,24.00
2019-02-06T04:56:47.043Z,23.10
2019-02-06T04:59:17.325Z,21.17
2019-02-06T05:01:47.280Z,22.60
2019-02-06T05:04:20.530Z,24.87
2019-02-06T05:06:50.678Z,21.77
2019-02-06T05:09:20.913Z,23.30
2019-02-06T05:11:52.471Z,23.03
2019-02-06T05:14:24.795Z,21.33
2019-02-06T05:16:55.266Z,22.60
2019-02-06T05:19:25.626Z,21.80
2019-02-06T05:21:56.853Z,23.07
2019-02-06T05:24:27.073Z,29.07
2019-02-06T05:26:57.329Z,20.50
2019-02-06T05:29:30.451Z,24.07
2019-02-06T05:32:02.411Z,22.70
2019-02-06T05:34:36.872Z,25.17
2019-02-06T05:37:07.125Z,23.90
2019-02-06T05:39:37.750Z,26.93
2019-02-06T05:42:08.151Z,24.27
2019-02-06T05:44:40.683Z,22.13
2019-02-06T05:47:11.161Z,24.40
2019-02-06T05:49:42.350Z,22.70
2019-02-06T05:52:12.550Z,20.53
2019-02-06T05:54:42.330Z,23.80
2019-02-06T05:57:18.562Z,27.77
2019-02-06T05:59:49.310Z,24.53
2019-02-06T06:02:19.632Z,26.60
2019-02-06T06:04:49.376Z,22.13
2019-02-06T06:07:19.384Z,22.43
2019-02-06T06:09:52.531Z,22.47
2019-02-06T06:12:24.974Z,22.67
2019-02-06T06:14:55.353Z,22.50
2019-02-06T06:17:32.621Z,19.47
2019-02-06T06:20:13.244Z,20.93
2019-02-06T06:22:46.753Z,21.43
2019-02-06T06:25:35.191Z,23.40
2019-02-06T06:28:19.719Z,27.10
2019-02-06T06:30:55.941Z,22.30
2019-02-06T06:33:26.025Z,24.20
2019-02-06T06:35:56.442Z,24.90
2019-02-06T06:38:28.290Z,18.90
2019-02-06T06:40:58.243Z,22.60
2019-02-06T06:43:28.991Z,20.63
2019-02-06T06:45:59.714Z,20.60
2019-02-06T06:48:34.865Z,18.73
2019-02-06T06:51:05.301Z,21.27
2019-02-06T06:53:35.369Z,21.57
2019-02-06T06:56:09.318Z,31.70
2019-02-06T06:58:45.220Z,21.10
2019-02-06T07:01:30.088Z,20.50
2019-02-06T07:04:06.387Z,18.83
2019-02-06T07:06:55.226Z,23.83
2019-02-06T07:09:32.538Z,20.53
2019-02-06T07:12:19.405Z,21.53
2019-02-06T07:15:06.726Z,20.47
2019-02-06T07:18:45.921Z,19.47
2019-02-06T07:21:29.511Z,21.63
2019-02-06T07:23:53.602Z,21.60
2019-02-06T07:26:26.738Z,26.07
2019-02-06T07:40:50.752Z,21.30
2019-02-06T07:43:21.099Z,29.80
2019-02-06T07:45:50.609Z,26.13
2019-02-06T07:48:21.474Z,30.40
2019-02-06T07:50:52.945Z,34.67
2019-02-06T07:53:23.638Z,43.53
2019-02-06T07:55:54.011Z,39.10
2019-02-06T07:58:24.343Z,34.57
2019-02-06T08:00:53.998Z,40.23
2019-02-06T08:03:26.000Z,37.00
2019-02-06T08:05:55.603Z,36.33
2019-02-06T08:08:36.223Z,29.97
2019-02-06T08:11:02.913Z,25.70
2019-02-06T08:13:37.269Z,25.93
2019-02-06T08:16:08.121Z,27.40
2019-02-06T08:18:38.162Z,26.73
2019-02-06T08:21:08.447Z,24.30
2019-02-06T08:23:38.507Z,22.33
2019-02-06T08:26:09.032Z,21.17
2019-02-06T08:28:40.013Z,25.20
2019-02-06T08:31:09.440Z,23.10
2019-02-06T08:33:39.080Z,21.33
2019-02-06T08:36:09.776Z,22.43
2019-02-06T08:38:48.130Z,21.60
2019-02-06T08:41:13.980Z,21.27
2019-02-06T08:43:44.014Z,23.20
2019-02-06T08:46:17.312Z,19.80
2019-02-06T08:48:48.802Z,21.40
2019-02-06T08:51:18.338Z,23.23
2019-02-06T08:53:48.594Z,24.17
2019-02-06T08:56:18.525Z,23.00
2019-02-06T08:58:48.310Z,22.87
2019-02-06T09:01:18.065Z,23.57
2019-02-06T09:03:47.525Z,26.20
2019-02-06T09:06:16.980Z,20.53
2019-02-06T09:08:46.863Z,24.23
2019-02-06T09:11:18.164Z,29.43
2019-02-06T09:13:47.998Z,28.70
2019-02-06T09:16:18.219Z,19.67
2019-02-06T09:18:50.932Z,33.57
2019-02-06T09:21:20.491Z,28.47
2019-02-06T09:23:51.077Z,25.43
2019-02-06T09:26:22.866Z,26.27
2019-02-06T09:28:52.595Z,22.37
2019-02-06T09:31:22.068Z,17.77
2019-02-06T09:33:52.305Z,22.53
2019-02-06T09:36:21.956Z,23.17
2019-02-06T09:38:53.750Z,22.77
2019-02-06T09:41:24.938Z,22.27
2019-02-06T09:43:54.751Z,29.40
2019-02-06T09:46:25.249Z,32.10
2019-02-06T09:48:55.733Z,25.53
2019-02-06T09:51:26.499Z,23.63
2019-02-06T09:53:56.374Z,25.23
2019-02-06T09:56:26.803Z,22.33
2019-02-06T09:58:56.408Z,30.10
2019-02-06T10:01:26.135Z,24.23
2019-02-06T10:03:55.323Z,23.27
2019-02-06T10:06:25.869Z,22.90
2019-02-06T10:08:55.199Z,25.50
2019-02-06T10:11:25.010Z,24.57
2019-02-06T10:13:54.672Z,24.23
2019-02-06T10:16:24.574Z,25.30
2019-02-06T10:18:56.422Z,18.90
2019-02-06T10:21:26.138Z,24.00
2019-02-06T10:23:56.011Z,23.17
2019-02-06T10:26:25.407Z,21.87
2019-02-06T10:28:56.071Z,23.23
2019-02-06T10:31:27.430Z,20.57
2019-02-06T10:33:57.621Z,22.50
2019-02-06T10:36:28.509Z,19.10
2019-02-06T10:38:58.640Z,21.50
2019-02-06T10:41:28.218Z,17.07
2019-02-06T10:43:57.569Z,19.60
2019-02-06T10:46:27.430Z,18.50
2019-02-06T10:48:59.809Z,25.67
2019-02-06T10:51:30.552Z,16.27
2019-02-06T10:54:03.658Z,16.07
2019-02-06T10:56:33.460Z,19.33
2019-02-06T10:59:02.922Z,15.10
2019-02-06T11:01:33.429Z,22.60
2019-02-06T11:04:03.899Z,17.43
2019-02-06T11:06:47.332Z,19.47
2019-02-06T11:09:25.964Z,15.50
2019-02-06T11:12:18.511Z,16.13
2019-02-06T11:14:55.226Z,17.50
2019-02-06T11:34:26.768Z,19.97
2019-02-06T11:35:31.278Z,17.13
2019-02-06T11:46:50.533Z,14.77
2019-02-06T11:57:38.265Z,14.80
2019-02-06T12:03:34.398Z,13.50
2019-02-06T12:03:44.211Z,15.90
2019-02-06T12:07:11.810Z,22.20
2019-02-06T12:16:50.353Z,14.00
2019-02-06T12:20:20.967Z,14.80
2019-02-06T12:24:01.897Z,18.03
2019-02-06T12:27:27.256Z,13.60
2019-02-06T12:40:35.969Z,20.57
2019-02-06T12:43:59.844Z,13.90
2019-02-06T12:46:35.268Z,12.80
2019-02-06T12:49:24.490Z,13.90
2019-02-06T12:52:18.524Z,12.87
2019-02-06T12:55:46.817Z,16.40
2019-02-06T13:02:39.574Z,14.53
2019-02-06T13:09:47.334Z,10.73
2019-02-06T13:12:27.293Z,12.83
2019-02-06T13:15:02.620Z,11.90
2019-02-06T13:18:11.992Z,14.83
2019-02-06T13:21:39.661Z,14.47
2019-02-06T13:24:21.694Z,17.23
2019-02-06T13:29:34.026Z,16.73
2019-02-06T13:32:18.385Z,18.30
2019-02-06T13:35:13.772Z,14.50
2019-02-06T13:37:50.115Z,18.27
2019-02-06T13:41:27.308Z,14.70
2019-02-06T13:43:26.939Z,14.60
2019-02-06T13:46:26.327Z,20.83
2019-02-06T13:49:38.723Z,13.30
2019-02-06T13:52:25.651Z,12.90
2019-02-06T13:55:05.619Z,12.07
2019-02-06T13:57:49.428Z,10.83
2019-02-06T14:00:54.733Z,12.77
2019-02-06T14:04:01.739Z,18.13
2019-02-06T14:14:18.233Z,10.17
2019-02-06T14:36:03.850Z,11.10
2019-02-06T14:40:03.372Z,12.13
2019-02-06T14:47:41.370Z,10.97
2019-02-06T14:55:01.511Z,12.20
2019-02-06T15:10:16.617Z,10.00
2019-02-06T15:13:49.023Z,13.80
2019-02-06T15:16:34.878Z,12.67
2019-02-06T15:19:40.621Z,13.23
2019-02-06T15:22:59.100Z,23.20
2019-02-06T15:26:02.952Z,13.93
2019-02-06T15:29:06.332Z,15.97
2019-02-06T15:32:09.865Z,17.37
2019-02-06T15:35:04.669Z,25.43
2019-02-06T15:38:18.453Z,19.20
2019-02-06T15:41:12.435Z,23.03
2019-02-06T15:44:04.971Z,20.57
2019-02-06T15:47:05.917Z,18.43
2019-02-06T15:49:47.749Z,18.93
2019-02-06T15:52:38.080Z,17.40
2019-02-06T15:55:51.991Z,17.97
2019-02-06T15:58:42.931Z,12.17
2019-02-06T16:02:03.162Z,13.27
2019-02-06T16:05:41.689Z,10.70
2019-02-06T16:08:55.821Z,15.13
2019-02-06T16:12:12.959Z,18.40
2019-02-06T16:15:08.633Z,24.10
2019-02-06T16:18:18.258Z,23.00
2019-02-06T16:21:16.910Z,17.63
2019-02-06T16:24:32.513Z,19.03
2019-02-06T16:27:55.885Z,18.33
2019-02-06T16:31:27.862Z,26.70
2019-02-06T16:34:26.339Z,31.57
2019-02-06T16:37:39.071Z,42.40
2019-02-06T16:40:47.874Z,46.30
2019-02-06T16:43:34.454Z,47.90
2019-02-06T16:46:45.402Z,51.40
2019-02-06T16:49:39.107Z,39.60
2019-02-06T16:52:57.409Z,54.07
2019-02-06T16:56:09.946Z,39.63
2019-02-06T16:59:13.515Z,33.43
2019-02-06T17:02:02.181Z,35.93
2019-02-06T17:04:56.262Z,30.07
2019-02-06T17:08:31.305Z,23.93
2019-02-06T17:11:45.374Z,32.43
2019-02-06T17:14:54.825Z,26.03
2019-02-06T17:17:45.264Z,20.80
2019-02-06T17:20:46.637Z,18.10
2019-02-06T17:23:44.870Z,19.50
2019-02-06T17:26:29.978Z,17.73
2019-02-06T17:29:29.639Z,22.00
2019-02-06T17:32:34.800Z,20.77
2019-02-06T17:35:54.702Z,18.00
2019-02-06T17:39:24.150Z,18.20
2019-02-06T17:42:16.076Z,20.67
2019-02-06T17:45:32.219Z,18.30
2019-02-06T17:48:45.539Z,15.60
2019-02-06T18:02:05.346Z,31.80
2019-02-06T18:04:40.173Z,34.30
2019-02-06T18:07:11.294Z,37.20
2019-02-06T18:09:46.545Z,38.00
2019-02-06T18:12:26.368Z,38.20
2019-02-06T18:14:48.954Z,38.23
2019-02-06T18:17:19.414Z,30.73
2019-02-06T18:19:49.331Z,30.30
2019-02-06T18:22:22.464Z,24.27
2019-02-06T18:24:51.835Z,27.90
2019-02-06T18:27:23.076Z,26.47
2019-02-06T18:30:02.059Z,24.67
2019-02-06T18:32:39.268Z,24.87
2019-02-06T18:35:14.050Z,25.17
2019-02-06T18:37:51.550Z,32.87
2019-02-06T18:40:26.807Z,36.77
2019-02-06T18:43:00.328Z,22.20
2019-02-06T18:48:37.746Z,17.20
2019-02-06T18:51:24.208Z,16.57
2019-02-06T18:54:02.809Z,14.30
2019-02-06T18:56:36.655Z,16.77
2019-02-06T18:59:19.166Z,15.70
2019-02-06T19:02:08.570Z,20.60
2019-02-06T19:04:40.073Z,20.53
2019-02-06T19:07:24.835Z,29.80
2019-02-06T19:10:04.433Z,22.73
2019-02-06T19:33:52.206Z,36.63
2019-02-06T19:36:48.334Z,30.33
2019-02-06T19:39:25.227Z,30.13
2019-02-06T19:42:00.135Z,33.90
2019-02-06T19:44:30.550Z,31.73
2019-02-06T19:47:04.354Z,29.70
2019-02-06T19:49:37.619Z,30.77
2019-02-06T19:52:07.057Z,27.57
2019-02-06T19:54:43.030Z,31.00
2019-02-06T19:57:20.738Z,25.97
2019-02-06T19:59:47.612Z,29.07
2019-02-06T20:02:29.061Z,28.80
2019-02-06T20:05:05.517Z,30.00
2019-02-06T20:08:08.185Z,29.27
2019-02-06T20:10:48.156Z,35.27
2019-02-06T20:16:10.486Z,37.10
2019-02-06T20:18:49.157Z,27.10
2019-02-06T20:21:35.670Z,28.67
2019-02-06T20:24:11.543Z,24.97
2019-02-06T20:26:42.839Z,18.27
2019-02-06T20:29:13.670Z,15.23
2019-02-06T20:31:44.886Z,15.33
2019-02-06T20:34:16.470Z,23.30
2019-02-06T20:37:22.411Z,19.03
2019-02-06T20:40:10.735Z,16.97
2019-02-06T20:43:09.000Z,13.97
2019-02-06T20:45:39.891Z,20.07
2019-02-06T20:48:16.892Z,24.07
2019-02-06T20:51:09.665Z,27.97
2019-02-06T20:53:51.565Z,23.63
2019-02-06T20:56:21.210Z,24.40
2019-02-06T20:58:58.707Z,27.67
2019-02-06T21:01:29.713Z,25.70
2019-02-06T21:04:01.597Z,93.10
2019-02-06T21:06:34.142Z,49.47
2019-02-06T21:09:06.082Z,41.00
2019-02-06T21:11:37.042Z,37.07
2019-02-06T21:14:08.606Z,38.73
2019-02-06T21:16:38.502Z,27.23
2019-02-06T21:19:09.075Z,37.97
2019-02-06T21:21:59.642Z,37.07
2019-02-06T21:24:24.605Z,33.50
2019-02-06T21:26:54.502Z,34.87
2019-02-06T21:29:29.832Z,31.27
2019-02-06T21:31:59.929Z,30.13
2019-02-06T21:34:30.569Z,37.87
2019-02-06T21:37:04.155Z,33.17
2019-02-06T21:39:50.212Z,41.77
2019-02-06T21:42:41.474Z,30.47
2019-02-06T21:45:11.651Z,37.00
2019-02-06T21:47:45.495Z,36.77
2019-02-06T21:50:17.266Z,38.77
2019-02-06T21:53:00.136Z,37.10
2019-02-06T21:55:30.269Z,34.63
2019-02-06T21:58:07.074Z,41.23
2019-02-06T22:00:43.997Z,35.03
2019-02-06T22:03:18.067Z,33.03
2019-02-06T22:05:57.990Z,28.60
2019-02-06T22:08:36.166Z,22.83
2019-02-06T22:11:07.317Z,22.17
2019-02-06T22:13:38.417Z,22.03
2019-02-06T22:16:08.824Z,22.10
2019-02-06T22:18:46.769Z,17.00
2019-02-06T22:21:16.893Z,17.90
2019-02-06T22:23:49.423Z,16.33
2019-02-06T22:26:29.737Z,15.13
2019-02-06T22:29:00.453Z,18.30
2019-02-06T22:31:30.486Z,17.30
2019-02-06T22:34:11.706Z,16.97
2019-02-06T22:36:42.072Z,17.30
2019-02-06T22:39:17.320Z,21.47
2019-02-06T22:41:47.417Z,25.07
2019-02-06T22:44:17.731Z,25.47
2019-02-06T22:46:48.329Z,28.20
2019-02-06T22:49:18.987Z,21.20
2019-02-06T22:51:54.420Z,27.83
2019-02-06T22:54:28.376Z,25.33
2019-02-06T22:56:58.278Z,28.27
2019-02-06T22:59:29.457Z,31.13
2019-02-06T23:02:00.262Z,27.17
2019-02-06T23:04:30.344Z,28.33
2019-02-06T23:07:00.763Z,26.87
2019-02-06T23:09:31.370Z,24.47
2019-02-06T23:12:01.666Z,19.93
2019-02-06T23:14:32.402Z,18.17
2019-02-06T23:17:03.353Z,23.40
2019-02-06T23:19:37.204Z,30.27
2019-02-06T23:22:10.570Z,23.80
2019-02-06T23:24:39.107Z,24.43
2019-02-06T23:27:09.257Z,22.37
2019-02-06T23:29:39.205Z,29.80
2019-02-06T23:32:09.131Z,31.10
2019-02-06T23:34:40.509Z,24.20
2019-02-06T23:37:12.823Z,30.80
2019-02-06T23:39:54.468Z,29.47
2019-02-06T23:42:24.812Z,29.10
2019-02-06T23:44:58.467Z,24.33
2019-02-06T23:47:28.822Z,26.87
2019-02-06T23:49:59.778Z,23.70
2019-02-06T23:52:31.372Z,28.00
2019-02-06T23:55:02.083Z,21.40
2019-02-06T23:57:35.316Z,23.93
